createdAt,value
2018-11-03T00:02:14.929Z,60.91
2018-11-03T00:04:43.797Z,62.26
2018-11-03T00:07:12.754Z,62.13
2018-11-03T00:09:41.676Z,62.05
2018-11-03T00:12:10.632Z,63.69
2018-11-03T00:14:39.480Z,62.43
2018-11-03T00:17:08.454Z,60.86
2018-11-03T00:19:38.086Z,61.78
2018-11-03T00:22:07.741Z,63.12
2018-11-03T00:24:36.681Z,66.35
2018-11-03T00:27:05.668Z,67.67
2018-11-03T00:29:34.591Z,67.90
2018-11-03T00:32:03.643Z,68.31
2018-11-03T00:34:32.969Z,67.84
2018-11-03T00:37:01.887Z,68.51
2018-11-03T00:39:30.824Z,68.66
2018-11-03T00:41:59.741Z,68.41
2018-11-03T00:44:28.718Z,68.98
2018-11-03T00:46:57.640Z,68.52
2018-11-03T00:49:26.506Z,68.88
2018-11-03T00:51:55.407Z,66.92
2018-11-03T00:54:24.273Z,65.98
2018-11-03T00:56:53.194Z,66.43
2018-11-03T00:59:22.060Z,67.52
2018-11-03T01:01:50.924Z,66.98
2018-11-03T01:04:19.789Z,67.92
2018-11-03T01:06:48.761Z,66.99
2018-11-03T01:09:17.676Z,67.05
2018-11-03T01:11:46.918Z,68.08
2018-11-03T01:14:15.804Z,67.79
2018-11-03T01:16:44.757Z,68.39
2018-11-03T01:19:13.729Z,68.23
2018-11-03T01:21:42.576Z,67.79
2018-11-03T01:24:11.540Z,67.68
2018-11-03T01:26:40.443Z,68.15
2018-11-03T01:29:09.469Z,67.81
2018-11-03T01:31:38.361Z,67.81
2018-11-03T01:34:07.357Z,67.57
2018-11-03T01:36:36.275Z,67.75
2018-11-03T01:39:07.217Z,67.24
2018-11-03T01:41:36.126Z,67.17
2018-11-03T01:44:05.139Z,67.31
2018-11-03T01:46:34.089Z,67.19
2018-11-03T01:49:02.982Z,67.16
2018-11-03T01:51:32.038Z,67.15
2018-11-03T01:54:00.962Z,67.28
2018-11-03T01:56:29.868Z,68.55
2018-11-03T01:58:58.770Z,65.70
2018-11-03T02:01:27.719Z,63.78
2018-11-03T02:03:57.298Z,62.80
2018-11-03T02:06:26.262Z,63.43
2018-11-03T02:08:55.229Z,62.18
2018-11-03T02:11:24.150Z,61.61
2018-11-03T02:13:53.079Z,62.52
2018-11-03T02:16:21.988Z,62.70
2018-11-03T02:18:50.852Z,61.52
2018-11-03T02:21:19.739Z,62.35
2018-11-03T02:23:48.617Z,63.10
2018-11-03T02:26:17.563Z,63.54
2018-11-03T02:28:46.625Z,63.88
2018-11-03T02:31:15.517Z,63.40
2018-11-03T02:33:44.515Z,64.21
2018-11-03T02:36:13.581Z,65.97
2018-11-03T02:38:42.599Z,65.37
2018-11-03T02:41:11.531Z,64.52
2018-11-03T02:43:40.382Z,63.07
2018-11-03T02:46:09.277Z,63.03
2018-11-03T02:48:38.229Z,62.25
2018-11-03T02:51:07.085Z,62.76
2018-11-03T02:53:36.003Z,62.93
2018-11-03T02:56:04.902Z,61.87
2018-11-03T02:58:33.753Z,61.59
2018-11-03T03:01:02.692Z,61.48
2018-11-03T03:03:31.624Z,61.35
2018-11-03T03:06:00.593Z,62.56
2018-11-03T03:08:29.520Z,63.21
2018-11-03T03:10:58.370Z,61.56
2018-11-03T03:13:27.263Z,62.59
2018-11-03T03:15:56.217Z,63.13
2018-11-03T03:18:25.112Z,62.44
2018-11-03T03:20:54.019Z,61.27
2018-11-03T03:23:22.880Z,61.53
2018-11-03T03:25:51.724Z,62.60
2018-11-03T03:28:20.602Z,62.54
2018-11-03T03:30:49.493Z,62.81
2018-11-03T03:33:18.426Z,63.23
2018-11-03T03:35:47.322Z,62.46
2018-11-03T03:38:16.232Z,62.84
2018-11-03T03:40:45.200Z,62.77
2018-11-03T03:43:13.997Z,62.60
2018-11-03T03:45:42.902Z,62.67
2018-11-03T03:48:11.813Z,61.96
2018-11-03T03:50:40.718Z,63.23
2018-11-03T03:53:09.617Z,62.67
2018-11-03T03:55:38.558Z,62.17
2018-11-03T03:58:07.616Z,62.75
2018-11-03T04:00:36.605Z,62.99
2018-11-03T04:03:05.641Z,62.69
2018-11-03T04:05:41.157Z,62.06
2018-11-03T04:08:09.988Z,62.60
2018-11-03T04:10:39.006Z,61.97
2018-11-03T04:13:07.908Z,62.12
2018-11-03T04:15:36.905Z,61.82
2018-11-03T04:18:05.877Z,61.24
2018-11-03T04:20:34.723Z,62.16
2018-11-03T04:23:03.610Z,62.19
2018-11-03T04:25:32.492Z,62.28
2018-11-03T04:28:01.515Z,62.33
2018-11-03T04:30:30.349Z,62.06
2018-11-03T04:32:59.369Z,62.07
2018-11-03T04:35:28.260Z,61.70
2018-11-03T04:37:57.111Z,62.50
2018-11-03T04:40:26.010Z,62.70
2018-11-03T04:42:54.933Z,63.33
2018-11-03T04:45:23.927Z,63.16
2018-11-03T04:47:52.844Z,62.85
2018-11-03T04:50:21.776Z,63.18
2018-11-03T04:52:50.768Z,62.79
2018-11-03T04:55:19.836Z,63.13
2018-11-03T04:57:48.747Z,63.22
2018-11-03T05:00:17.667Z,62.19
2018-11-03T05:02:46.527Z,63.48
2018-11-03T05:05:15.442Z,63.40
2018-11-03T05:07:44.372Z,62.71
2018-11-03T05:10:13.424Z,62.36
2018-11-03T05:12:42.289Z,62.40
2018-11-03T05:15:11.238Z,62.63
2018-11-03T05:17:40.160Z,62.49
2018-11-03T05:20:09.105Z,61.89
2018-11-03T05:22:38.010Z,61.88
2018-11-03T05:25:06.982Z,62.23
2018-11-03T05:27:35.964Z,62.04
2018-11-03T05:30:05.074Z,62.94
2018-11-03T05:32:33.976Z,63.11
2018-11-03T05:35:02.869Z,62.84
2018-11-03T05:37:31.859Z,63.38
2018-11-03T05:40:00.862Z,63.58
2018-11-03T05:42:29.761Z,63.16
2018-11-03T05:44:58.718Z,63.89
2018-11-03T05:47:27.660Z,64.10
2018-11-03T05:49:56.706Z,64.05
2018-11-03T05:52:25.630Z,63.71
2018-11-03T05:54:54.640Z,64.46
2018-11-03T05:57:23.565Z,64.08
2018-11-03T05:59:52.524Z,63.91
2018-11-03T06:02:21.515Z,64.52
2018-11-03T06:04:50.399Z,64.71
2018-11-03T06:07:19.330Z,64.29
2018-11-03T06:09:48.275Z,64.47
2018-11-03T06:12:17.282Z,64.58
2018-11-03T06:14:46.236Z,64.29
2018-11-03T06:17:15.091Z,64.31
2018-11-03T06:19:43.997Z,63.59
2018-11-03T06:22:12.960Z,63.73
2018-11-03T06:24:41.985Z,63.91
2018-11-03T06:27:10.942Z,63.18
2018-11-03T06:29:39.838Z,63.51
2018-11-03T06:32:08.878Z,63.50
2018-11-03T06:34:39.998Z,64.27
2018-11-03T06:37:10.062Z,64.27
2018-11-03T06:39:43.473Z,70.71
2018-11-03T06:42:13.602Z,76.37
2018-11-03T06:44:43.515Z,77.29
2018-11-03T06:47:12.605Z,69.58
2018-11-03T06:49:41.460Z,61.91
2018-11-03T06:52:11.999Z,60.68
2018-11-03T06:54:40.997Z,61.08
2018-11-03T06:57:10.826Z,61.24
2018-11-03T06:59:39.825Z,61.96
2018-11-03T07:02:09.928Z,63.18
2018-11-03T07:04:38.884Z,63.70
2018-11-03T07:07:07.772Z,64.40
2018-11-03T07:09:36.844Z,65.14
2018-11-03T07:12:06.317Z,65.52
2018-11-03T07:14:36.436Z,65.58
2018-11-03T07:17:05.489Z,65.64
2018-11-03T07:19:34.444Z,66.26
2018-11-03T07:22:03.317Z,66.98
2018-11-03T07:24:32.367Z,66.64
2018-11-03T07:27:02.100Z,67.47
2018-11-03T07:29:31.003Z,67.50
2018-11-03T07:32:00.011Z,67.25
2018-11-03T07:34:28.904Z,67.30
2018-11-03T07:36:57.851Z,66.08
2018-11-03T07:39:27.237Z,66.51
2018-11-03T07:41:56.446Z,66.79
2018-11-03T07:44:28.868Z,67.52
2018-11-03T07:46:57.792Z,68.83
2018-11-03T07:49:26.839Z,68.30
2018-11-03T07:51:55.686Z,68.65
2018-11-03T07:54:24.674Z,67.93
2018-11-03T07:56:53.589Z,67.25
2018-11-03T07:59:22.523Z,67.27
2018-11-03T08:01:51.834Z,66.62
2018-11-03T08:04:20.966Z,65.72
2018-11-03T08:06:49.878Z,65.92
2018-11-03T08:09:18.856Z,65.07
2018-11-03T08:11:47.879Z,64.83
2018-11-03T08:14:16.765Z,64.71
2018-11-03T08:16:45.657Z,65.00
2018-11-03T08:19:14.581Z,64.30
2018-11-03T08:21:43.503Z,64.12
2018-11-03T08:24:12.418Z,65.05
2018-11-03T08:26:41.333Z,64.10
2018-11-03T08:29:10.233Z,62.83
2018-11-03T08:31:39.255Z,63.06
2018-11-03T08:34:08.038Z,62.94
2018-11-03T08:36:37.001Z,62.78
2018-11-03T08:39:07.840Z,62.40
2018-11-03T08:41:41.579Z,65.42
2018-11-03T08:44:10.607Z,62.45
2018-11-03T08:46:39.841Z,61.21
2018-11-03T08:49:08.881Z,60.18
2018-11-03T08:51:37.850Z,60.33
2018-11-03T08:54:07.340Z,60.18
2018-11-03T08:56:36.425Z,59.89
2018-11-03T08:59:05.468Z,59.38
2018-11-03T09:01:35.073Z,59.86
2018-11-03T09:04:04.115Z,59.10
2018-11-03T09:06:33.470Z,58.93
2018-11-03T09:09:02.556Z,70.02
2018-11-03T09:11:31.617Z,65.37
2018-11-03T09:14:17.641Z,59.44
2018-11-03T09:16:46.622Z,56.82
2018-11-03T09:19:15.675Z,57.16
2018-11-03T09:21:44.750Z,58.58
2018-11-03T09:24:15.481Z,58.00
2018-11-03T09:26:44.384Z,58.11
2018-11-03T09:29:13.411Z,56.41
2018-11-03T09:31:42.442Z,58.13
2018-11-03T09:34:11.433Z,59.05
2018-11-03T09:36:40.385Z,57.70
2018-11-03T09:39:10.713Z,56.29
2018-11-03T09:41:39.811Z,55.79
2018-11-03T09:44:08.891Z,54.83
2018-11-03T09:46:37.918Z,55.71
2018-11-03T09:49:07.211Z,54.61
2018-11-03T09:51:36.309Z,55.66
2018-11-03T09:54:05.461Z,54.78
2018-11-03T09:56:34.470Z,54.54
2018-11-03T09:59:03.788Z,55.86
2018-11-03T10:01:32.721Z,55.76
2018-11-03T10:04:01.850Z,53.63
2018-11-03T10:06:30.991Z,54.32
2018-11-03T10:08:59.849Z,54.96
2018-11-03T10:11:28.855Z,52.94
2018-11-03T10:13:57.742Z,54.52
2018-11-03T10:16:26.751Z,53.87
2018-11-03T10:18:55.651Z,53.74
2018-11-03T10:21:24.591Z,51.87
2018-11-03T10:23:53.551Z,52.39
2018-11-03T10:26:23.191Z,51.44
2018-11-03T10:28:52.116Z,51.65
2018-11-03T10:31:21.291Z,51.29
2018-11-03T10:33:50.344Z,50.30
2018-11-03T10:36:19.191Z,49.74
2018-11-03T10:38:48.302Z,50.56
2018-11-03T10:41:17.291Z,48.00
2018-11-03T10:43:46.315Z,47.37
2018-11-03T10:46:15.342Z,46.46
2018-11-03T10:48:44.374Z,47.96
2018-11-03T10:51:13.340Z,46.31
2018-11-03T10:53:42.565Z,45.42
2018-11-03T10:56:11.628Z,44.80
2018-11-03T10:58:40.687Z,44.71
2018-11-03T11:01:14.596Z,45.51
2018-11-03T11:03:48.594Z,46.24
2018-11-03T11:06:22.546Z,44.72
2018-11-03T11:08:56.479Z,45.63
2018-11-03T11:11:30.620Z,43.43
2018-11-03T11:13:59.897Z,44.38
2018-11-03T11:16:28.975Z,42.96
2018-11-03T11:18:57.917Z,42.98
2018-11-03T11:21:26.997Z,42.54
2018-11-03T11:23:56.065Z,42.87
2018-11-03T11:26:25.038Z,43.14
2018-11-03T11:28:54.280Z,43.10
2018-11-03T11:31:23.464Z,42.26
2018-11-03T11:33:52.299Z,42.72
2018-11-03T11:36:21.245Z,41.00
2018-11-03T11:38:50.234Z,42.36
2018-11-03T11:41:19.219Z,42.11
2018-11-03T11:43:48.244Z,40.36
2018-11-03T11:46:17.424Z,39.11
2018-11-03T11:48:46.405Z,37.26
2018-11-03T11:51:15.484Z,36.23
2018-11-03T11:53:44.490Z,34.95
2018-11-03T11:56:13.553Z,34.70
2018-11-03T11:58:42.469Z,34.86
2018-11-03T12:01:11.471Z,33.13
2018-11-03T12:03:40.750Z,30.19
2018-11-03T12:06:09.718Z,29.31
2018-11-03T12:08:38.751Z,26.85
2018-11-03T12:11:07.901Z,25.41
2018-11-03T12:13:36.954Z,24.06
2018-11-03T12:16:06.120Z,23.95
2018-11-03T12:18:35.222Z,23.94
2018-11-03T12:21:04.126Z,24.63
2018-11-03T12:23:32.998Z,22.96
2018-11-03T12:26:01.912Z,23.58
2018-11-03T12:28:30.949Z,24.64
2018-11-03T12:30:59.891Z,22.44
2018-11-03T12:33:29.089Z,23.71
2018-11-03T12:35:58.026Z,23.35
2018-11-03T12:38:26.954Z,23.60
2018-11-03T12:40:55.966Z,23.20
2018-11-03T12:43:24.772Z,22.68
2018-11-03T12:45:53.782Z,22.51
2018-11-03T12:48:22.702Z,24.88
2018-11-03T12:50:51.485Z,25.43
2018-11-03T12:53:20.394Z,22.85
2018-11-03T12:55:49.303Z,22.95
2018-11-03T12:58:18.256Z,22.67
2018-11-03T13:00:47.246Z,23.55
2018-11-03T13:03:16.904Z,21.68
2018-11-03T13:05:45.793Z,23.02
2018-11-03T13:08:14.727Z,22.97
2018-11-03T13:10:43.582Z,23.81
2018-11-03T13:13:12.551Z,24.36
2018-11-03T13:15:41.447Z,25.11
2018-11-03T13:18:10.294Z,26.79
2018-11-03T13:20:39.168Z,24.90
2018-11-03T13:23:08.198Z,25.11
2018-11-03T13:25:37.110Z,24.94
2018-11-03T13:28:06.441Z,25.68
2018-11-03T13:30:35.315Z,25.28
2018-11-03T13:33:04.267Z,25.32
2018-11-03T13:35:33.147Z,25.72
2018-11-03T13:38:02.111Z,25.84
2018-11-03T13:40:31.074Z,26.00
2018-11-03T13:43:00.017Z,26.62
2018-11-03T13:45:28.969Z,26.22
2018-11-03T13:47:57.910Z,25.34
2018-11-03T13:50:26.781Z,25.95
2018-11-03T13:52:55.768Z,25.78
2018-11-03T13:55:24.650Z,25.69
2018-11-03T13:57:53.556Z,26.07
2018-11-03T14:00:22.465Z,26.65
2018-11-03T14:02:51.431Z,26.54
2018-11-03T14:05:20.442Z,26.93
2018-11-03T14:07:49.487Z,27.30
2018-11-03T14:10:18.478Z,27.74
2018-11-03T14:12:47.612Z,28.31
2018-11-03T14:15:17.697Z,29.18
2018-11-03T14:17:46.602Z,30.11
2018-11-03T14:20:16.259Z,32.99
2018-11-03T14:22:45.747Z,29.62
2018-11-03T14:25:16.319Z,28.68
2018-11-03T14:27:46.373Z,31.90
2018-11-03T14:30:15.400Z,32.08
2018-11-03T14:32:44.471Z,32.18
2018-11-03T14:35:14.244Z,31.41
2018-11-03T14:37:43.107Z,31.62
2018-11-03T14:40:14.546Z,32.19
2018-11-03T14:42:45.181Z,32.87
2018-11-03T14:45:15.074Z,31.30
2018-11-03T14:47:43.882Z,32.41
2018-11-03T14:50:12.951Z,33.32
2018-11-03T14:52:42.677Z,35.09
2018-11-03T14:55:12.528Z,34.12
2018-11-03T14:57:41.412Z,33.94
2018-11-03T15:00:16.158Z,33.44
2018-11-03T15:02:45.139Z,33.56
2018-11-03T15:05:14.252Z,37.64
2018-11-03T15:07:44.200Z,34.63
2018-11-03T15:10:13.777Z,34.67
2018-11-03T15:12:43.877Z,37.30
2018-11-03T15:15:14.425Z,38.99
2018-11-03T15:17:43.675Z,35.44
2018-11-03T15:20:12.961Z,35.83
2018-11-03T15:22:42.499Z,38.19
2018-11-03T15:25:11.696Z,39.08
2018-11-03T15:27:41.116Z,40.46
2018-11-03T15:30:11.154Z,39.24
2018-11-03T15:32:40.348Z,40.65
2018-11-03T15:35:10.009Z,37.75
2018-11-03T15:37:39.210Z,40.08
2018-11-03T15:40:10.833Z,40.15
2018-11-03T15:42:39.673Z,39.29
2018-11-03T15:45:11.378Z,38.88
2018-11-03T15:47:40.306Z,38.07
2018-11-03T15:50:09.159Z,44.20
2018-11-03T15:52:37.981Z,42.25
2018-11-03T15:55:07.315Z,38.78
2018-11-03T15:57:36.201Z,40.93
2018-11-03T16:00:06.033Z,40.72
2018-11-03T16:02:34.934Z,43.70
2018-11-03T16:05:03.823Z,44.15
2018-11-03T16:07:32.671Z,43.93
2018-11-03T16:10:01.537Z,47.00
2018-11-03T16:12:30.434Z,44.61
2018-11-03T16:14:59.326Z,40.15
2018-11-03T16:17:28.121Z,46.35
2018-11-03T16:19:56.998Z,45.41
2018-11-03T16:22:25.867Z,44.28
2018-11-03T16:24:54.878Z,44.38
2018-11-03T16:27:23.715Z,48.17
2018-11-03T16:29:52.997Z,42.34
2018-11-03T16:32:22.115Z,44.87
2018-11-03T16:34:50.825Z,41.95
2018-11-03T16:37:19.684Z,40.33
2018-11-03T16:39:48.625Z,43.08
2018-11-03T16:42:17.479Z,41.93
2018-11-03T16:44:46.422Z,42.54
2018-11-03T16:47:15.331Z,45.98
2018-11-03T16:49:44.169Z,39.13
2018-11-03T16:52:13.042Z,42.06
2018-11-03T16:54:41.908Z,42.86
2018-11-03T16:57:17.120Z,44.82
2018-11-03T16:59:45.961Z,42.51
2018-11-03T17:02:14.822Z,41.84
2018-11-03T17:04:43.805Z,39.26
2018-11-03T17:07:12.706Z,46.74
2018-11-03T17:09:41.812Z,40.20
2018-11-03T17:12:10.842Z,43.66
2018-11-03T17:14:39.826Z,45.69
2018-11-03T17:17:08.802Z,41.91
2018-11-03T17:19:37.669Z,42.14
2018-11-03T17:22:06.848Z,42.92
2018-11-03T17:24:35.791Z,43.69
2018-11-03T17:27:05.589Z,44.78
2018-11-03T17:29:34.573Z,45.41
2018-11-03T17:32:03.629Z,46.00
2018-11-03T17:34:32.564Z,47.05
2018-11-03T17:37:01.485Z,47.62
2018-11-03T17:39:30.322Z,48.14
2018-11-03T17:41:59.196Z,48.71
2018-11-03T17:44:28.063Z,48.74
2018-11-03T17:46:56.995Z,49.36
2018-11-03T17:49:25.948Z,49.62
2018-11-03T17:51:54.948Z,49.84
2018-11-03T17:54:23.859Z,49.90
2018-11-03T17:56:52.713Z,50.71
2018-11-03T17:59:21.645Z,50.49
2018-11-03T18:01:50.547Z,50.77
2018-11-03T18:04:19.434Z,51.67
2018-11-03T18:06:48.461Z,52.29
2018-11-03T18:09:17.315Z,52.47
2018-11-03T18:11:46.366Z,52.37
2018-11-03T18:14:15.283Z,52.96
2018-11-03T18:16:44.223Z,53.62
2018-11-03T18:19:13.118Z,53.27
2018-11-03T18:21:42.559Z,52.90
2018-11-03T18:24:11.815Z,52.69
2018-11-03T18:26:40.856Z,53.06
2018-11-03T18:29:09.883Z,52.99
2018-11-03T18:31:38.944Z,54.02
2018-11-03T18:34:07.997Z,54.11
2018-11-03T18:36:36.890Z,53.89
2018-11-03T18:39:08.260Z,53.83
2018-11-03T18:41:37.292Z,53.75
2018-11-03T18:44:06.480Z,53.92
2018-11-03T18:46:35.671Z,54.11
2018-11-03T18:49:04.652Z,54.18
2018-11-03T18:51:33.751Z,54.42
2018-11-03T18:54:02.801Z,55.31
2018-11-03T18:56:31.866Z,55.47
2018-11-03T18:59:00.970Z,55.80
2018-11-03T19:01:30.425Z,55.93
2018-11-03T19:03:59.316Z,55.93
2018-11-03T19:06:28.208Z,56.92
2018-11-03T19:08:57.294Z,57.42
2018-11-03T19:11:26.174Z,58.08
2018-11-03T19:13:55.158Z,58.66
2018-11-03T19:16:24.052Z,58.66
2018-11-03T19:18:53.015Z,59.17
2018-11-03T19:21:22.054Z,59.40
2018-11-03T19:23:51.301Z,59.78
2018-11-03T19:26:20.373Z,59.56
2018-11-03T19:28:49.375Z,58.90
2018-11-03T19:31:18.584Z,59.10
2018-11-03T19:33:47.640Z,59.33
2018-11-03T19:36:16.591Z,59.66
2018-11-03T19:38:45.793Z,59.39
2018-11-03T19:41:14.842Z,59.52
2018-11-03T19:43:44.131Z,60.49
2018-11-03T19:46:13.010Z,60.99
2018-11-03T19:48:41.984Z,61.49
2018-11-03T19:51:11.138Z,61.76
2018-11-03T19:53:40.097Z,61.83
2018-11-03T19:56:09.025Z,61.41
2018-11-03T19:58:38.079Z,62.33
2018-11-03T20:01:07.323Z,62.24
2018-11-03T20:03:36.420Z,62.53
2018-11-03T20:06:05.526Z,62.88
2018-11-03T20:08:34.469Z,63.43
2018-11-03T20:11:03.389Z,62.80
2018-11-03T20:13:32.308Z,62.68
2018-11-03T20:16:01.159Z,62.45
2018-11-03T20:18:30.153Z,62.72
2018-11-03T20:20:59.297Z,63.03
2018-11-03T20:23:28.395Z,62.45
2018-11-03T20:25:58.263Z,62.66
2018-11-03T20:28:27.341Z,62.13
2018-11-03T20:30:56.223Z,62.84
2018-11-03T20:33:25.118Z,62.56
2018-11-03T20:35:54.052Z,61.86
2018-11-03T20:38:22.967Z,61.67
2018-11-03T20:40:51.941Z,62.58
2018-11-03T20:43:20.802Z,62.15
2018-11-03T20:45:49.880Z,61.82
2018-11-03T20:48:19.190Z,61.69
2018-11-03T20:50:52.245Z,61.30
2018-11-03T20:53:21.190Z,61.05
2018-11-03T20:55:50.062Z,61.34
2018-11-03T20:58:19.053Z,60.42
2018-11-03T21:00:48.290Z,60.77
2018-11-03T21:03:17.373Z,60.20
2018-11-03T21:05:46.470Z,60.86
2018-11-03T21:08:15.507Z,60.54
2018-11-03T21:10:44.325Z,60.56
2018-11-03T21:13:13.248Z,60.80
2018-11-03T21:15:42.837Z,60.18
2018-11-03T21:18:11.734Z,60.34
2018-11-03T21:20:40.631Z,60.55
2018-11-03T21:23:09.484Z,60.04
2018-11-03T21:25:38.541Z,59.99
2018-11-03T21:28:07.590Z,60.40
2018-11-03T21:30:36.774Z,60.85
2018-11-03T21:33:06.176Z,60.85
2018-11-03T21:35:34.940Z,61.29
2018-11-03T21:38:03.884Z,61.35
2018-11-03T21:40:32.792Z,61.08
2018-11-03T21:43:01.674Z,61.08
2018-11-03T21:45:30.533Z,60.74
2018-11-03T21:47:59.436Z,61.07
2018-11-03T21:50:28.326Z,61.22
2018-11-03T21:52:57.210Z,61.22
2018-11-03T21:55:26.068Z,61.74
2018-11-03T21:57:54.954Z,61.85
2018-11-03T22:00:23.941Z,61.88
2018-11-03T22:02:53.032Z,61.07
2018-11-03T22:05:22.102Z,61.73
2018-11-03T22:07:51.096Z,61.54
2018-11-03T22:10:20.096Z,61.47
2018-11-03T22:12:49.120Z,61.23
2018-11-03T22:15:18.025Z,61.34
2018-11-03T22:17:47.042Z,61.96
2018-11-03T22:20:15.894Z,61.16
2018-11-03T22:22:44.713Z,61.77
2018-11-03T22:25:13.656Z,61.57
2018-11-03T22:27:42.525Z,61.52
2018-11-03T22:30:12.216Z,62.20
2018-11-03T22:32:41.681Z,61.76
2018-11-03T22:35:10.589Z,61.54
2018-11-03T22:37:39.541Z,61.77
2018-11-03T22:40:09.189Z,61.76
2018-11-03T22:42:38.117Z,62.12
2018-11-03T22:45:07.028Z,61.71
2018-11-03T22:47:36.233Z,62.76
2018-11-03T22:50:05.383Z,62.16
2018-11-03T22:52:34.343Z,62.81
2018-11-03T22:55:03.174Z,62.66
2018-11-03T22:57:32.106Z,63.00
2018-11-03T23:00:01.132Z,61.72
2018-11-03T23:02:29.989Z,62.21
2018-11-03T23:04:58.914Z,62.20
2018-11-03T23:07:27.795Z,62.37
2018-11-03T23:09:56.827Z,62.42
2018-11-03T23:12:25.732Z,62.90
2018-11-03T23:14:54.574Z,62.51
2018-11-03T23:17:23.466Z,62.21
2018-11-03T23:19:52.346Z,62.49
2018-11-03T23:22:21.366Z,62.09
2018-11-03T23:24:50.277Z,62.11
2018-11-03T23:27:19.197Z,62.50
2018-11-03T23:29:48.130Z,62.05
2018-11-03T23:32:16.943Z,62.04
2018-11-03T23:34:46.000Z,62.45
2018-11-03T23:37:14.856Z,62.04
2018-11-03T23:39:43.711Z,62.83
2018-11-03T23:42:13.186Z,62.20
2018-11-03T23:44:42.155Z,62.32
2018-11-03T23:47:11.226Z,63.18
2018-11-03T23:49:40.159Z,63.32
2018-11-03T23:52:09.026Z,62.32
2018-11-03T23:54:37.954Z,62.96
2018-11-03T23:57:06.858Z,63.35
2018-11-03T23:59:35.705Z,63.84
